createdAt,value
2018-07-21T00:01:59.665Z,99.90
2018-07-21T00:04:26.826Z,99.90
2018-07-21T00:06:54.077Z,99.90
2018-07-21T00:09:21.031Z,99.90
2018-07-21T00:11:47.879Z,99.90
2018-07-21T00:14:15.055Z,99.90
2018-07-21T00:16:42.020Z,99.90
2018-07-21T00:19:10.167Z,99.90
2018-07-21T00:21:37.218Z,99.90
2018-07-21T00:24:06.537Z,99.90
2018-07-21T00:26:35.527Z,99.90
2018-07-21T00:29:02.882Z,99.90
2018-07-21T00:31:32.268Z,99.90
2018-07-21T00:34:02.562Z,99.90
2018-07-21T00:36:32.936Z,99.90
2018-07-21T00:39:03.157Z,99.90
2018-07-21T00:41:35.329Z,99.90
2018-07-21T00:44:04.555Z,99.90
2018-07-21T00:46:34.721Z,99.90
2018-07-21T00:49:03.220Z,99.90
2018-07-21T00:51:33.428Z,99.90
2018-07-21T00:54:07.558Z,99.90
2018-07-21T00:56:45.656Z,99.90
2018-07-21T00:59:17.210Z,99.90
2018-07-21T01:01:47.266Z,99.90
2018-07-21T01:04:21.078Z,99.90
2018-07-21T01:06:52.110Z,99.90
2018-07-21T01:09:24.292Z,99.90
2018-07-21T01:11:55.589Z,99.90
2018-07-21T01:14:33.084Z,99.90
2018-07-21T01:17:03.952Z,99.90
2018-07-21T01:19:40.243Z,99.90
2018-07-21T01:22:12.031Z,99.90
2018-07-21T01:24:43.886Z,99.90
2018-07-21T01:27:14.944Z,99.90
2018-07-21T01:29:46.976Z,99.90
2018-07-21T01:32:19.969Z,99.90
2018-07-21T01:34:51.911Z,99.90
2018-07-21T01:37:20.743Z,99.90
2018-07-21T01:39:49.959Z,99.90
2018-07-21T01:42:18.512Z,99.90
2018-07-21T01:44:46.402Z,99.90
2018-07-21T01:47:14.069Z,99.90
2018-07-21T01:49:41.121Z,99.90
2018-07-21T01:52:08.306Z,99.90
2018-07-21T01:54:36.049Z,99.90
2018-07-21T01:57:02.899Z,99.90
2018-07-21T01:59:30.772Z,99.90
2018-07-21T02:01:59.598Z,99.90
2018-07-21T02:04:27.639Z,99.90
2018-07-21T02:06:55.002Z,99.90
2018-07-21T02:09:21.954Z,99.90
2018-07-21T02:11:49.730Z,99.90
2018-07-21T02:14:18.793Z,99.90
2018-07-21T02:16:46.490Z,99.90
2018-07-21T02:19:14.261Z,99.90
2018-07-21T02:21:41.725Z,99.90
2018-07-21T02:24:08.572Z,99.90
2018-07-21T02:26:43.201Z,99.90
2018-07-21T02:29:10.456Z,99.90
2018-07-21T02:31:38.365Z,99.90
2018-07-21T02:34:05.384Z,99.90
2018-07-21T02:36:32.643Z,99.90
2018-07-21T02:39:00.003Z,99.90
2018-07-21T02:41:28.081Z,99.90
2018-07-21T02:43:55.746Z,99.90
2018-07-21T02:46:23.110Z,99.90
2018-07-21T02:48:50.472Z,99.90
2018-07-21T02:51:17.523Z,99.90
2018-07-21T02:53:44.376Z,99.90
2018-07-21T02:56:11.221Z,99.90
2018-07-21T02:58:38.477Z,99.90
2018-07-21T03:01:05.736Z,99.90
2018-07-21T03:03:32.994Z,99.90
2018-07-21T03:05:59.847Z,99.90
2018-07-21T03:08:26.695Z,99.90
2018-07-21T03:10:53.953Z,99.90
2018-07-21T03:13:20.803Z,99.90
2018-07-21T03:15:47.649Z,99.90
2018-07-21T03:18:14.499Z,99.90
2018-07-21T03:20:41.689Z,99.90
2018-07-21T03:23:10.363Z,99.90
2018-07-21T03:25:37.198Z,99.90
2018-07-21T03:28:04.250Z,99.90
2018-07-21T03:30:31.037Z,99.90
2018-07-21T03:32:58.047Z,99.90
2018-07-21T03:35:25.205Z,99.90
2018-07-21T03:37:52.157Z,99.90
2018-07-21T03:40:19.312Z,99.90
2018-07-21T03:42:46.160Z,99.90
2018-07-21T03:45:13.937Z,99.90
2018-07-21T03:47:40.883Z,99.90
2018-07-21T03:50:07.837Z,99.90
2018-07-21T03:52:35.912Z,99.90
2018-07-21T03:55:02.864Z,99.90
2018-07-21T03:57:30.122Z,99.90
2018-07-21T03:59:56.971Z,99.90
2018-07-21T04:02:23.821Z,99.90
2018-07-21T04:04:51.178Z,99.90
2018-07-21T04:07:18.131Z,99.90
2018-07-21T04:09:44.982Z,99.90
2018-07-21T04:12:12.239Z,99.90
2018-07-21T04:14:39.393Z,99.90
2018-07-21T04:17:06.345Z,99.90
2018-07-21T04:19:33.399Z,99.90
2018-07-21T04:22:00.561Z,99.90
2018-07-21T04:24:27.508Z,99.90
2018-07-21T04:26:54.356Z,99.90
2018-07-21T04:29:21.924Z,99.90
2018-07-21T04:31:49.180Z,99.90
2018-07-21T04:34:16.133Z,99.90
2018-07-21T04:36:43.394Z,99.90
2018-07-21T04:39:10.647Z,99.90
2018-07-21T04:41:37.399Z,99.90
2018-07-21T04:44:04.961Z,99.90
2018-07-21T04:46:32.629Z,99.90
2018-07-21T04:49:00.601Z,99.90
2018-07-21T04:51:27.862Z,99.90
2018-07-21T04:53:55.077Z,99.90
2018-07-21T04:56:21.972Z,99.90
2018-07-21T04:58:49.227Z,99.90
2018-07-21T05:01:16.074Z,99.90
2018-07-21T05:03:43.026Z,99.90
2018-07-21T05:06:10.286Z,99.90
2018-07-21T05:08:37.746Z,99.90
2018-07-21T05:11:04.908Z,99.90
2018-07-21T05:13:39.246Z,99.90
2018-07-21T05:16:07.198Z,99.90
2018-07-21T05:18:34.764Z,99.90
2018-07-21T05:21:01.719Z,99.90
2018-07-21T05:23:28.670Z,99.90
2018-07-21T05:25:55.419Z,99.90
2018-07-21T05:28:22.466Z,99.90
2018-07-21T05:30:49.417Z,99.90
2018-07-21T05:33:16.677Z,99.90
2018-07-21T05:35:43.524Z,99.90
2018-07-21T05:38:10.373Z,99.90
2018-07-21T05:40:37.328Z,99.90
2018-07-21T05:43:04.175Z,99.90
2018-07-21T05:45:31.129Z,99.90
2018-07-21T05:47:59.204Z,99.90
2018-07-21T05:53:26.571Z,99.90
2018-07-21T05:55:53.513Z,99.90
2018-07-21T05:58:20.369Z,99.90
2018-07-21T06:00:47.832Z,99.90
2018-07-21T06:03:15.260Z,99.90
2018-07-21T06:05:50.583Z,99.90
2018-07-21T06:08:19.229Z,99.90
2018-07-21T06:10:46.180Z,99.90
2018-07-21T06:13:13.027Z,99.90
2018-07-21T06:15:40.390Z,99.90
2018-07-21T06:18:08.157Z,99.90
2018-07-21T06:20:35.108Z,99.90
2018-07-21T06:23:01.962Z,99.90
2018-07-21T06:25:28.914Z,99.90
2018-07-21T06:27:56.087Z,99.90
2018-07-21T06:30:23.738Z,99.90
2018-07-21T06:32:52.056Z,99.90
2018-07-21T06:35:19.891Z,99.90
2018-07-21T06:37:47.525Z,99.90
2018-07-21T06:40:15.327Z,99.90
2018-07-21T06:42:42.276Z,99.90
2018-07-21T06:45:09.432Z,99.90
2018-07-21T06:47:36.691Z,99.90
2018-07-21T06:50:04.051Z,99.90
2018-07-21T06:52:31.822Z,99.90
2018-07-21T06:54:59.695Z,99.90
2018-07-21T06:57:28.284Z,99.90
2018-07-21T06:59:56.569Z,99.90
2018-07-21T07:02:23.823Z,99.90
2018-07-21T07:04:51.454Z,99.90
2018-07-21T07:07:18.853Z,99.90
2018-07-21T07:09:47.542Z,99.90
2018-07-21T07:12:14.595Z,99.90
2018-07-21T07:14:41.855Z,99.90
2018-07-21T07:17:09.215Z,99.90
2018-07-21T07:19:37.010Z,99.90
2018-07-21T07:22:05.777Z,99.90
2018-07-21T07:24:33.650Z,99.90
2018-07-21T07:27:01.525Z,99.90
2018-07-21T07:29:28.678Z,99.90
2018-07-21T07:31:55.834Z,99.90
2018-07-21T07:34:22.991Z,99.90
2018-07-21T07:36:50.045Z,99.90
2018-07-21T07:39:17.305Z,99.90
2018-07-21T07:41:44.457Z,99.90
2018-07-21T07:44:11.409Z,99.90
2018-07-21T07:46:38.467Z,99.90
2018-07-21T07:49:05.723Z,99.90
2018-07-21T07:51:34.517Z,99.90
2018-07-21T07:54:01.980Z,99.90
2018-07-21T07:56:30.260Z,99.90
2018-07-21T07:58:57.521Z,99.90
2018-07-21T08:01:24.674Z,99.90
2018-07-21T08:03:51.832Z,99.90
2018-07-21T08:06:19.523Z,99.90
2018-07-21T08:08:46.547Z,99.90
2018-07-21T08:11:13.913Z,99.90
2018-07-21T08:13:41.068Z,99.90
2018-07-21T08:16:08.328Z,99.90
2018-07-21T08:18:35.483Z,99.90
2018-07-21T08:21:02.641Z,99.90
2018-07-21T08:23:30.041Z,99.90
2018-07-21T08:25:57.771Z,99.90
2018-07-21T08:28:25.135Z,99.90
2018-07-21T08:30:52.292Z,99.90
2018-07-21T08:33:19.443Z,99.90
2018-07-21T08:35:46.707Z,99.90
2018-07-21T08:38:13.857Z,99.90
2018-07-21T08:40:40.761Z,99.90
2018-07-21T08:43:09.400Z,99.90
2018-07-21T08:45:36.426Z,99.90
2018-07-21T08:48:03.609Z,99.90
2018-07-21T08:50:30.655Z,99.90
2018-07-21T08:52:57.817Z,99.90
2018-07-21T08:55:24.927Z,99.90
2018-07-21T08:57:52.135Z,99.90
2018-07-21T09:00:19.184Z,99.90
2018-07-21T09:02:46.543Z,99.90
2018-07-21T09:05:13.801Z,99.90
2018-07-21T09:07:41.064Z,99.90
2018-07-21T09:10:08.320Z,99.90
2018-07-21T09:12:35.372Z,99.90
2018-07-21T09:15:02.530Z,99.90
2018-07-21T09:17:29.684Z,99.90
2018-07-21T09:19:57.658Z,99.90
2018-07-21T09:22:24.714Z,99.90
2018-07-21T09:24:52.790Z,99.90
2018-07-21T09:27:20.307Z,99.90
2018-07-21T09:29:49.254Z,99.90
2018-07-21T09:32:17.020Z,99.90
2018-07-21T09:34:43.768Z,99.90
2018-07-21T09:37:10.717Z,94.40
2018-07-21T09:39:37.567Z,99.90
2018-07-21T09:42:04.417Z,97.00
2018-07-21T09:44:32.088Z,93.00
2018-07-21T09:46:58.932Z,94.50
2018-07-21T09:49:26.193Z,96.30
2018-07-21T09:51:53.349Z,95.10
2018-07-21T09:54:20.505Z,94.90
2018-07-21T09:56:47.354Z,90.30
2018-07-21T09:59:15.023Z,93.20
2018-07-21T10:01:42.010Z,93.10
2018-07-21T10:04:09.027Z,87.80
2018-07-21T10:06:35.875Z,91.50
2018-07-21T10:09:02.927Z,93.20
2018-07-21T10:11:29.775Z,90.10
2018-07-21T10:13:57.548Z,92.20
2018-07-21T10:16:24.500Z,90.00
2018-07-21T10:18:51.346Z,90.30
2018-07-21T10:21:18.707Z,90.30
2018-07-21T10:23:46.068Z,90.90
2018-07-21T10:26:31.137Z,94.50
2018-07-21T10:29:12.925Z,94.50
2018-07-21T10:31:39.875Z,90.50
2018-07-21T10:34:07.030Z,90.40
2018-07-21T10:36:33.883Z,90.60
2018-07-21T10:39:00.935Z,89.80
2018-07-21T10:41:27.784Z,88.20
2018-07-21T10:43:55.158Z,87.60
2018-07-21T10:46:22.195Z,91.40
2018-07-21T10:48:49.034Z,92.20
2018-07-21T10:51:15.851Z,92.20
2018-07-21T10:53:43.459Z,90.70
2018-07-21T10:56:10.616Z,90.70
2018-07-21T10:58:38.387Z,91.90
2018-07-21T11:01:06.055Z,91.70
2018-07-21T11:03:33.015Z,91.70
2018-07-21T11:05:59.854Z,90.60
2018-07-21T11:08:27.009Z,90.80
2018-07-21T11:10:53.963Z,88.70
2018-07-21T11:13:20.711Z,90.30
2018-07-21T11:15:47.557Z,90.00
2018-07-21T11:18:14.510Z,88.60
2018-07-21T11:20:43.305Z,89.40
2018-07-21T11:23:10.254Z,89.30
2018-07-21T11:25:37.616Z,90.10
2018-07-21T11:28:04.673Z,89.20
2018-07-21T11:30:31.822Z,90.40
2018-07-21T11:32:58.779Z,90.80
2018-07-21T11:35:26.841Z,88.90
2018-07-21T11:37:54.420Z,89.80
2018-07-21T11:40:21.265Z,89.90
2018-07-21T11:42:48.216Z,84.60
2018-07-21T11:45:16.846Z,87.00
2018-07-21T11:47:46.002Z,88.20
2018-07-21T11:50:14.292Z,88.20
2018-07-21T11:52:42.063Z,84.00
2018-07-21T11:55:08.809Z,83.90
2018-07-21T11:57:35.758Z,85.80
2018-07-21T12:00:03.940Z,90.10
2018-07-21T12:02:32.629Z,88.00
2018-07-21T12:04:59.477Z,88.10
2018-07-21T12:07:26.943Z,87.30
2018-07-21T12:09:54.152Z,90.10
2018-07-21T12:12:21.976Z,89.10
2018-07-21T12:14:49.984Z,89.10
2018-07-21T12:17:17.922Z,88.50
2018-07-21T12:19:45.280Z,88.40
2018-07-21T12:22:12.539Z,90.10
2018-07-21T12:24:41.499Z,90.50
2018-07-21T12:27:08.797Z,90.90
2018-07-21T12:29:36.538Z,91.20
2018-07-21T12:32:04.543Z,90.80
2018-07-21T12:34:32.624Z,90.20
2018-07-21T12:37:00.665Z,89.70
2018-07-21T12:39:28.277Z,87.00
2018-07-21T12:41:55.521Z,87.40
2018-07-21T12:44:23.710Z,86.10
2018-07-21T12:46:50.902Z,85.50
2018-07-21T12:49:18.622Z,88.80
2018-07-21T12:51:45.879Z,87.80
2018-07-21T12:54:14.161Z,87.90
2018-07-21T12:56:42.239Z,87.50
2018-07-21T12:59:10.676Z,88.40
2018-07-21T13:01:38.618Z,89.80
2018-07-21T13:04:06.574Z,89.60
2018-07-21T13:06:33.728Z,90.10
2018-07-21T13:09:00.784Z,90.50
2018-07-21T13:11:28.046Z,90.60
2018-07-21T13:13:55.180Z,90.80
2018-07-21T13:16:23.584Z,91.20
2018-07-21T13:18:51.934Z,91.00
2018-07-21T13:21:19.324Z,92.70
2018-07-21T13:23:46.920Z,94.50
2018-07-21T13:26:13.857Z,93.30
2018-07-21T13:28:41.015Z,94.70
2018-07-21T13:31:07.861Z,95.00
2018-07-21T13:33:34.711Z,95.60
2018-07-21T13:36:01.559Z,93.60
2018-07-21T14:31:44.764Z,99.90
2018-07-21T14:34:11.417Z,99.90
2018-07-21T14:36:38.108Z,98.30
2018-07-21T14:39:04.862Z,95.20
2018-07-21T14:41:31.512Z,93.70
2018-07-21T14:43:58.198Z,93.00
2018-07-21T14:46:24.868Z,93.90
2018-07-21T14:48:51.557Z,91.70
2018-07-21T14:51:18.231Z,91.20
2018-07-21T14:53:44.909Z,90.00
2018-07-21T14:56:11.597Z,84.70
2018-07-21T14:58:38.273Z,84.80
2018-07-21T15:01:04.991Z,82.90
2018-07-21T15:03:31.658Z,84.50
2018-07-21T15:05:58.362Z,82.30
2018-07-21T15:08:25.032Z,85.70
2018-07-21T15:10:51.745Z,88.50
2018-07-21T15:13:18.496Z,89.80
2018-07-21T15:15:45.139Z,89.00
2018-07-21T15:18:11.788Z,89.90
2018-07-21T15:20:38.607Z,90.20
2018-07-21T15:23:05.309Z,90.40
2018-07-21T15:25:47.028Z,90.30
2018-07-21T15:28:13.765Z,90.60
2018-07-21T15:30:40.531Z,90.30
2018-07-21T15:33:07.996Z,88.80
2018-07-21T15:35:34.722Z,88.80
2018-07-21T15:38:01.433Z,89.30
2018-07-21T15:40:43.014Z,89.30
2018-07-21T15:43:10.476Z,89.90
2018-07-21T15:45:37.149Z,90.00
2018-07-21T15:48:03.963Z,90.90
2018-07-21T15:50:31.022Z,89.50
2018-07-21T15:52:57.862Z,84.60
2018-07-21T15:55:24.540Z,86.30
2018-07-21T15:57:51.469Z,84.40
2018-07-21T16:00:18.122Z,84.30
2018-07-21T16:02:44.866Z,85.10
2018-07-21T16:05:11.512Z,84.60
2018-07-21T16:07:38.319Z,86.50
2018-07-21T16:10:05.105Z,82.90
2018-07-21T16:12:32.649Z,82.90
2018-07-21T16:15:03.872Z,82.80
2018-07-21T16:17:26.847Z,82.80
2018-07-21T16:19:53.507Z,83.50
2018-07-21T16:22:20.948Z,83.10
2018-07-21T16:24:47.632Z,83.20
2018-07-21T16:27:14.320Z,83.10
2018-07-21T16:29:41.137Z,83.70
2018-07-21T16:32:07.859Z,83.90
2018-07-21T16:34:34.558Z,83.40
2018-07-21T16:37:01.271Z,83.20
2018-07-21T16:39:27.966Z,83.00
2018-07-21T16:41:54.634Z,83.30
2018-07-21T16:44:21.336Z,85.00
2018-07-21T16:46:48.032Z,84.60
2018-07-21T16:49:14.724Z,84.70
2018-07-21T16:51:41.369Z,83.50
2018-07-21T16:54:08.063Z,83.40
2018-07-21T16:56:34.748Z,85.00
2018-07-21T16:59:01.436Z,84.50
2018-07-21T17:01:28.125Z,85.30
2018-07-21T17:03:54.768Z,84.70
2018-07-21T17:06:21.464Z,85.20
2018-07-21T17:08:48.231Z,84.60
2018-07-21T17:11:14.993Z,85.10
2018-07-21T17:13:41.699Z,85.20
2018-07-21T17:16:09.101Z,85.00
2018-07-21T17:18:35.774Z,84.60
2018-07-21T17:21:02.486Z,88.00
2018-07-21T17:23:29.921Z,91.30
2018-07-21T17:25:56.576Z,90.90
2018-07-21T17:28:23.296Z,92.10
2018-07-21T17:30:49.973Z,93.90
2018-07-21T17:33:16.664Z,95.50
2018-07-21T17:35:43.351Z,96.50
2018-07-21T17:38:10.107Z,97.20
2018-07-21T17:40:36.804Z,98.10
2018-07-21T17:43:03.496Z,99.20
2018-07-21T17:45:30.907Z,99.90
2018-07-21T17:47:57.681Z,99.90
2018-07-21T17:50:24.407Z,99.90
2018-07-21T17:55:23.654Z,99.90
2018-07-21T17:57:51.085Z,99.90
2018-07-21T18:00:18.096Z,99.90
2018-07-21T18:02:44.867Z,99.90
2018-07-21T18:05:11.552Z,99.90
2018-07-21T18:07:38.954Z,99.90
2018-07-21T18:10:05.768Z,99.90
2018-07-21T18:12:33.385Z,99.90
2018-07-21T18:15:00.038Z,99.90
2018-07-21T18:17:27.433Z,99.90
2018-07-21T18:19:54.416Z,99.90
2018-07-21T18:22:22.193Z,99.90
2018-07-21T18:24:49.023Z,99.90
2018-07-21T18:27:15.682Z,99.90
2018-07-21T18:29:42.474Z,99.90
2018-07-21T18:32:09.171Z,99.90
2018-07-21T18:34:36.613Z,99.90
2018-07-21T18:37:05.090Z,99.90
2018-07-21T18:39:31.790Z,99.90
2018-07-21T18:41:58.424Z,99.90
2018-07-21T18:44:25.138Z,99.90
2018-07-21T18:46:52.579Z,99.90
2018-07-21T18:49:20.012Z,99.90
2018-07-21T18:51:46.676Z,99.90
2018-07-21T18:54:14.333Z,99.90
2018-07-21T18:56:41.716Z,99.90
2018-07-21T18:59:08.411Z,99.90
2018-07-21T19:01:35.456Z,99.90
2018-07-21T19:04:02.117Z,99.90
2018-07-21T19:06:29.556Z,99.90
2018-07-21T19:09:11.107Z,99.90
2018-07-21T19:11:37.915Z,99.90
2018-07-21T19:14:05.371Z,99.90
2018-07-21T19:16:39.970Z,99.90
2018-07-21T19:19:06.684Z,99.90
2018-07-21T19:21:33.429Z,99.90
2018-07-21T19:24:00.078Z,99.90
2018-07-21T19:26:47.746Z,99.90
2018-07-21T19:29:30.074Z,99.90
2018-07-21T19:31:56.927Z,99.90
2018-07-21T19:34:23.658Z,99.90
2018-07-21T19:36:50.334Z,99.90
2018-07-21T19:39:17.023Z,99.90
2018-07-21T19:41:43.829Z,99.90
2018-07-21T19:44:11.278Z,99.90
2018-07-21T19:46:37.976Z,99.90
2018-07-21T19:49:04.657Z,99.90
2018-07-21T19:51:31.375Z,99.90
2018-07-21T19:53:58.168Z,99.90
2018-07-21T19:56:25.649Z,99.90
2018-07-21T19:58:52.369Z,99.90
2018-07-21T20:01:19.083Z,99.90
2018-07-21T20:03:46.536Z,99.90
2018-07-21T20:06:13.172Z,99.90
2018-07-21T20:08:39.897Z,99.90
2018-07-21T20:11:06.773Z,99.90
2018-07-21T20:13:34.210Z,99.90
2018-07-21T20:16:01.064Z,99.90
2018-07-21T20:18:28.524Z,99.90
2018-07-21T20:20:55.341Z,99.90
2018-07-21T20:23:22.025Z,99.90
2018-07-21T20:25:49.444Z,99.90
2018-07-21T20:28:16.117Z,99.90
2018-07-21T20:30:43.516Z,99.90
2018-07-21T20:33:10.983Z,99.90
2018-07-21T20:35:37.788Z,99.90
2018-07-21T20:38:04.554Z,99.90
2018-07-21T20:40:31.220Z,99.90
2018-07-21T20:42:57.931Z,99.90
2018-07-21T20:45:24.568Z,99.90
2018-07-21T20:47:51.310Z,99.90
2018-07-21T20:50:18.009Z,99.90
2018-07-21T20:52:45.450Z,99.90
2018-07-21T20:55:12.119Z,99.90
2018-07-21T20:57:38.844Z,99.90
2018-07-21T21:00:06.308Z,99.90
2018-07-21T21:02:33.713Z,99.90
2018-07-21T21:05:00.401Z,99.90
2018-07-21T21:07:27.770Z,99.90
2018-07-21T21:09:54.550Z,99.90
2018-07-21T21:12:21.276Z,99.90
2018-07-21T21:14:47.900Z,99.90
2018-07-21T21:17:14.618Z,99.90
2018-07-21T21:19:41.297Z,99.90
2018-07-21T21:22:08.831Z,99.90
2018-07-21T21:24:35.471Z,99.90
2018-07-21T21:27:02.191Z,99.90
2018-07-21T21:29:28.941Z,99.90
2018-07-21T21:31:56.328Z,99.90
2018-07-21T21:34:23.146Z,99.90
2018-07-21T21:36:49.791Z,99.90
2018-07-21T21:39:16.527Z,99.90
2018-07-21T21:41:43.303Z,99.90
2018-07-21T21:44:10.006Z,99.90
2018-07-21T21:46:36.751Z,99.90
2018-07-21T21:49:04.655Z,99.90
2018-07-21T21:51:32.607Z,99.90
2018-07-21T21:53:59.747Z,99.90
2018-07-21T21:56:26.883Z,99.90
2018-07-21T21:58:53.649Z,99.90
2018-07-21T22:01:20.778Z,99.90
2018-07-21T22:03:48.129Z,99.90
2018-07-21T22:06:14.867Z,99.00
2018-07-21T22:08:42.037Z,96.10
2018-07-21T22:11:08.967Z,93.60
2018-07-21T22:13:35.906Z,92.70
2018-07-21T22:16:02.625Z,91.40
2018-07-21T22:18:30.532Z,90.40
2018-07-21T22:20:57.767Z,90.50
2018-07-21T22:23:24.919Z,88.40
2018-07-21T22:25:51.948Z,86.60
2018-07-21T22:28:19.318Z,86.50
2018-07-21T22:30:46.164Z,85.50
2018-07-21T22:33:14.032Z,81.30
2018-07-21T22:35:41.476Z,84.40
2018-07-21T22:38:08.327Z,85.90
2018-07-21T22:40:35.383Z,82.60
2018-07-21T22:43:02.325Z,83.50
2018-07-21T22:45:29.062Z,82.90
2018-07-21T22:47:55.804Z,82.80
2018-07-21T22:50:22.850Z,87.40
2018-07-21T22:52:50.845Z,83.90
2018-07-21T22:55:17.968Z,85.20
2018-07-21T22:57:44.811Z,83.40
2018-07-21T23:00:11.532Z,84.30
2018-07-21T23:02:39.115Z,85.70
2018-07-21T23:05:06.160Z,85.70
2018-07-21T23:07:32.899Z,86.10
2018-07-21T23:09:59.946Z,87.10
2018-07-21T23:12:26.790Z,87.50
2018-07-21T23:14:53.631Z,86.50
2018-07-21T23:17:20.477Z,87.90
2018-07-21T23:19:47.220Z,87.90
2018-07-21T23:22:13.927Z,88.50
2018-07-21T23:24:41.384Z,89.90
2018-07-21T23:27:08.360Z,89.30
2018-07-21T23:29:35.305Z,90.00
2018-07-21T23:32:02.042Z,90.10
2018-07-21T23:34:28.892Z,90.70
2018-07-21T23:36:55.706Z,90.60
2018-07-21T23:39:23.159Z,91.60
2018-07-21T23:41:50.643Z,91.10
2018-07-21T23:44:17.385Z,91.10
2018-07-21T23:46:44.228Z,92.10
2018-07-21T23:49:11.070Z,92.40
2018-07-21T23:51:37.811Z,92.60
2018-07-21T23:54:04.549Z,93.10
2018-07-21T23:56:33.176Z,94.10
2018-07-21T23:59:00.591Z,94.20
